Time;durP1;ratioP1;P1;durP2;ratioP2;P2;SDS_P1;SDS_P2;PMS_P1;PMS_P2;Temp;Humidity;BMP_temperature;BMP_pressure;BME280_temperature;BME280_humidity;BME280_pressure;Samples;Min_cycle;Max_cycle;Signal;HPM_P1;HPM_P2
2022/12/18 00:01:39;;;;;;;35.13;19.93;;;;;;;-4.01;50.66;99968.78;7090913;27;20243;-78
2022/12/18 00:05:00;;;;;;;33.17;18.37;;;;;;;-4.04;50.24;99951.38;7089650;27;20220;-78
2022/12/18 00:08:22;;;;;;;35.97;18.37;;;;;;;-4.04;50.10;99951.38;7090263;27;20319;-78
2022/12/18 00:11:44;;;;;;;39.40;20.73;;;;;;;-4.25;50.28;99954.38;7090587;27;20287;-78
2022/12/18 00:15:07;;;;;;;39.80;18.93;;;;;;;-4.13;50.58;99977.38;7090184;27;20241;-78
2022/12/18 00:18:28;;;;;;;32.17;18.80;;;;;;;-4.41;49.90;99917.53;7090544;27;20251;-79
2022/12/18 00:21:50;;;;;;;26.87;17.20;;;;;;;-4.12;50.10;99948.31;7092997;27;20637;-78
2022/12/18 00:25:11;;;;;;;35.77;18.93;;;;;;;-4.24;50.79;99970.03;7092668;27;20351;-78
2022/12/18 00:28:34;;;;;;;29.90;18.73;;;;;;;-4.05;50.98;99986.53;7118300;27;20279;-78
2022/12/18 00:31:56;;;;;;;31.07;19.10;;;;;;;-4.16;50.18;99970.50;7118321;27;20307;-78
2022/12/18 00:35:18;;;;;;;31.10;18.83;;;;;;;-4.36;49.68;99983.06;7118030;27;20702;-78
2022/12/18 00:38:39;;;;;;;33.00;18.00;;;;;;;-4.42;50.16;99972.88;7117819;27;20314;-78
2022/12/18 00:45:42;;;;;;;35.00;19.33;;;;;;;-4.32;49.44;99948.59;7097698;27;20195;-79
2022/12/18 00:49:04;;;;;;;33.17;18.17;;;;;;;-4.62;50.46;99984.47;7117266;27;20220;-79
2022/12/18 00:52:25;;;;;;;33.23;18.60;;;;;;;-4.47;50.90;99990.69;7117699;27;20730;-78
2022/12/18 00:55:47;;;;;;;39.77;19.60;;;;;;;-4.48;51.48;99989.00;7117473;27;20294;-78
2022/12/18 00:59:08;;;;;;;32.50;17.77;;;;;;;-4.51;51.35;99974.22;7117225;27;20244;-78
2022/12/18 01:02:31;;;;;;;32.50;17.90;;;;;;;-4.20;51.24;99968.13;7117812;27;20274;-78
2022/12/18 01:05:52;;;;;;;36.30;19.17;;;;;;;-5.31;52.48;99976.81;7116841;27;20619;-79
2022/12/18 01:09:14;;;;;;;31.07;18.50;;;;;;;-4.99;52.65;99968.94;7117660;27;20239;-78
2022/12/18 01:12:36;;;;;;;33.97;19.07;;;;;;;-4.48;51.57;99971.41;7117602;27;20344;-78
2022/12/18 01:15:57;;;;;;;41.40;24.57;;;;;;;-4.69;51.49;99983.09;7116249;27;20202;-78
2022/12/18 01:19:20;;;;;;;28.63;17.60;;;;;;;-4.79;52.08;99984.50;7117248;27;20247;-78
2022/12/18 01:22:41;;;;;;;34.03;19.60;;;;;;;-4.97;51.56;99976.72;7117344;27;20204;-78
2022/12/18 01:26:08;;;;;;;34.87;19.03;;;;;;;-5.47;53.02;99994.25;7116155;27;20355;-78
2022/12/18 01:29:29;;;;;;;32.23;19.93;;;;;;;-5.49;53.57;99996.97;7116876;27;20234;-78
2022/12/18 01:32:51;;;;;;;34.77;21.10;;;;;;;-5.38;53.77;99992.03;7116802;27;20210;-78
2022/12/18 01:36:18;;;;;;;34.17;18.80;;;;;;;-5.04;53.37;99999.88;7116188;27;20239;-78
2022/12/18 01:39:40;;;;;;;36.83;18.90;;;;;;;-5.04;52.96;100013.03;7116122;27;20248;-79
2022/12/18 01:43:02;;;;;;;40.93;19.07;;;;;;;-4.91;53.43;100010.59;7088276;27;20330;-78
2022/12/18 01:46:27;;;;;;;34.27;17.67;;;;;;;-5.19;52.92;99986.69;7086836;27;20345;-78
2022/12/18 01:49:49;;;;;;;30.70;16.40;;;;;;;-4.71;51.48;99998.09;7087838;27;20306;-78
2022/12/18 01:53:15;;;;;;;32.33;17.43;;;;;;;-4.69;51.22;99991.00;7087997;27;20211;-78
2022/12/18 01:56:37;;;;;;;30.60;18.37;;;;;;;-4.85;51.03;99994.53;7102492;27;20714;-78
2022/12/18 02:00:02;;;;;;;34.53;16.50;;;;;;;-5.17;52.12;100008.47;7115949;27;20363;-78
2022/12/18 02:03:23;;;;;;;36.83;20.47;;;;;;;-5.37;53.45;99998.97;7116090;27;20667;-78
2022/12/18 02:06:45;;;;;;;35.97;19.30;;;;;;;-5.16;52.49;99981.25;7115505;27;20251;-78
2022/12/18 02:10:13;;;;;;;29.10;18.53;;;;;;;-5.10;52.80;99981.81;7115010;27;20318;-79
2022/12/18 02:13:42;;;;;;;31.23;19.13;;;;;;;-5.04;52.01;99997.25;7115761;27;20715;-78
2022/12/18 02:17:07;;;;;;;30.10;18.47;;;;;;;-5.46;52.32;100011.72;7094906;27;20206;-78
2022/12/18 02:20:34;;;;;;;35.03;19.83;;;;;;;-5.50;54.10;99984.75;7086753;27;20245;-78
2022/12/18 02:24:00;;;;;;;30.73;17.87;;;;;;;-4.98;53.40;99994.31;7100904;27;20229;-78
2022/12/18 02:27:23;;;;;;;33.47;18.97;;;;;;;-5.66;53.04;99988.22;7114388;27;20318;-79
2022/12/18 02:30:46;;;;;;;36.37;17.80;;;;;;;-5.60;53.10;99973.00;7115426;27;20935;-78
2022/12/18 02:34:09;;;;;;;37.00;20.40;;;;;;;-5.39;53.98;100007.84;7115582;27;20349;-79
2022/12/18 02:37:32;;;;;;;31.13;17.00;;;;;;;-5.47;53.87;99997.75;7115027;27;20288;-78
2022/12/18 02:40:54;;;;;;;36.90;19.40;;;;;;;-5.36;54.11;99987.53;7114195;27;20310;-79
2022/12/18 02:44:17;;;;;;;35.40;17.97;;;;;;;-5.04;53.85;99978.84;7115118;27;20191;-78
2022/12/18 02:47:40;;;;;;;31.93;17.63;;;;;;;-5.07;52.73;100015.81;7114518;27;20357;-78
2022/12/18 02:51:05;;;;;;;33.50;18.17;;;;;;;-5.19;54.23;100012.97;7115063;27;20811;-79
2022/12/18 02:54:41;;;;;;;27.43;17.23;;;;;;;-4.94;53.45;100014.25;7114274;27;20222;-78
2022/12/18 02:58:06;;;;;;;29.47;17.03;;;;;;;-4.88;51.94;100020.97;7114435;27;20286;-79
2022/12/18 03:01:34;;;;;;;30.30;16.50;;;;;;;-5.25;53.62;100031.69;7115103;27;20674;-78
2022/12/18 03:05:00;;;;;;;26.60;15.43;;;;;;;-5.13;53.38;100025.81;7113957;27;20253;-79
2022/12/18 03:08:24;;;;;;;26.50;16.97;;;;;;;-5.47;52.93;100015.28;7114974;27;20280;-78
2022/12/18 03:15:31;;;;;;;33.47;17.57;;;;;;;-5.16;53.09;100016.28;7084985;27;20185;-77
2022/12/18 03:18:57;;;;;;;27.07;15.63;;;;;;;-4.96;52.67;100023.16;7085176;27;20258;-78
2022/12/18 03:22:19;;;;;;;29.13;16.63;;;;;;;-4.99;53.58;100004.91;7085704;27;20204;-77
2022/12/18 03:25:42;;;;;;;30.97;16.80;;;;;;;-5.09;54.05;100029.94;7085145;27;20327;-77
2022/12/18 03:29:07;;;;;;;28.87;16.70;;;;;;;-4.96;53.58;100033.69;7085332;27;20579;-78
2022/12/18 03:32:32;;;;;;;30.83;17.70;;;;;;;-5.01;54.03;100035.69;7085416;27;20279;-78
2022/12/18 03:35:55;;;;;;;31.50;15.93;;;;;;;-4.86;53.71;100051.53;7084449;27;20341;-78
2022/12/18 03:39:17;;;;;;;30.77;17.63;;;;;;;-4.95;54.23;100057.22;7084020;27;20314;-79
2022/12/18 03:42:46;;;;;;;31.77;16.40;;;;;;;-4.16;52.94;100038.09;7108129;27;20238;-78
2022/12/18 03:46:13;;;;;;;29.90;17.37;;;;;;;-4.40;52.63;100042.06;7113246;27;20285;-78
2022/12/18 03:49:37;;;;;;;32.70;18.37;;;;;;;-4.56;52.49;100036.75;7113749;27;20231;-78
2022/12/18 03:53:06;;;;;;;30.13;17.00;;;;;;;-4.59;51.68;100034.31;7114814;27;20282;-78
2022/12/18 03:56:31;;;;;;;28.00;17.80;;;;;;;-4.66;52.22;100032.91;7113764;27;20364;-78
2022/12/18 03:59:56;;;;;;;36.60;19.17;;;;;;;-5.03;52.81;100038.38;7113590;27;20218;-78
2022/12/18 04:03:19;;;;;;;28.93;16.53;;;;;;;-4.73;52.12;100038.59;7113778;27;20818;-79
2022/12/18 04:06:41;;;;;;;28.10;16.93;;;;;;;-5.23;53.13;100024.56;7113252;27;20757;-78
2022/12/18 04:10:07;;;;;;;27.57;16.57;;;;;;;-4.60;52.92;100034.38;7113115;27;20282;-78
2022/12/18 04:13:29;;;;;;;27.43;15.93;;;;;;;-4.48;52.58;100033.72;7114206;27;20217;-79
2022/12/18 04:16:51;;;;;;;28.03;15.87;;;;;;;-4.44;52.73;100038.72;7113254;27;20682;-78
2022/12/18 04:20:12;;;;;;;27.27;15.17;;;;;;;-4.28;51.82;100020.31;7113858;27;20224;-78
2022/12/18 04:23:34;;;;;;;29.13;16.33;;;;;;;-4.36;51.73;100026.00;7108277;27;20371;-78
2022/12/18 04:26:57;;;;;;;26.23;15.70;;;;;;;-4.46;50.91;100024.81;7113034;27;20293;-78
2022/12/18 04:30:18;;;;;;;24.83;16.37;;;;;;;-4.49;51.15;100003.91;7115130;27;20226;-78
2022/12/18 04:33:40;;;;;;;27.37;15.13;;;;;;;-4.53;50.94;100027.84;7118246;27;20348;-78
2022/12/18 04:37:01;;;;;;;31.83;17.50;;;;;;;-4.61;51.29;100036.16;7119092;27;20340;-78
2022/12/18 04:40:23;;;;;;;26.90;15.40;;;;;;;-4.97;51.62;100017.03;7118690;27;20226;-77
2022/12/18 04:43:46;;;;;;;32.10;17.03;;;;;;;-4.85;51.36;100049.75;7122382;27;20246;-78
2022/12/18 04:47:07;;;;;;;28.87;16.83;;;;;;;-5.19;52.69;100049.78;7121332;27;20344;-78
2022/12/18 04:50:29;;;;;;;33.13;17.40;;;;;;;-5.17;53.35;100063.69;7118180;27;20244;-78
2022/12/18 04:53:51;;;;;;;33.57;18.03;;;;;;;-5.05;53.89;100042.88;7118253;27;20196;-78
2022/12/18 04:57:12;;;;;;;35.90;18.87;;;;;;;-4.88;52.67;100031.50;7117363;27;20849;-78
2022/12/18 05:00:35;;;;;;;36.80;16.30;;;;;;;-4.99;52.55;100033.81;7117792;27;20234;-79
2022/12/18 05:03:57;;;;;;;33.33;18.27;;;;;;;-4.65;52.35;100029.34;7117745;27;20203;-78
2022/12/18 05:07:18;;;;;;;28.83;17.00;;;;;;;-4.63;51.71;100016.13;7116592;27;20241;-78
2022/12/18 05:10:40;;;;;;;31.30;16.03;;;;;;;-5.21;51.71;99952.59;7117352;27;20238;-79
2022/12/18 05:14:02;;;;;;;36.57;16.83;;;;;;;-4.51;50.91;100040.00;7116877;27;20202;-78
2022/12/18 05:17:25;;;;;;;29.73;16.03;;;;;;;-4.64;51.34;100043.34;7117041;27;20200;-79
2022/12/18 05:24:22;;;;;;;34.20;16.07;;;;;;;-5.16;52.35;100034.69;7117046;27;20784;-78
2022/12/18 05:27:44;;;;;;;28.40;17.30;;;;;;;-5.57;51.99;99936.09;7116131;27;20219;-78
2022/12/18 05:31:06;;;;;;;29.97;17.13;;;;;;;-5.74;52.77;100030.63;7116584;27;20215;-78
2022/12/18 05:34:29;;;;;;;34.90;17.63;;;;;;;-5.68;54.24;100050.47;7116823;27;20207;-79
2022/12/18 05:37:50;;;;;;;34.67;16.57;;;;;;;-5.41;53.97;100004.47;7115948;27;20199;-79
2022/12/18 05:41:12;;;;;;;35.50;16.90;;;;;;;-4.79;53.17;100033.66;7114931;27;20427;-78
2022/12/18 05:44:33;;;;;;;34.77;18.93;;;;;;;-4.83;51.86;100042.63;7116734;27;20218;-78
2022/12/18 05:47:55;;;;;;;30.67;16.20;;;;;;;-4.94;51.19;100034.44;7115463;27;20221;-78
2022/12/18 05:51:20;;;;;;;37.90;18.37;;;;;;;-4.95;51.88;100041.47;7115873;27;20227;-78
2022/12/18 05:54:41;;;;;;;31.80;16.80;;;;;;;-4.76;51.59;100052.75;7116345;27;20208;-78
2022/12/18 05:58:03;;;;;;;32.07;17.87;;;;;;;-5.17;51.36;100045.28;7120423;27;20199;-78
2022/12/18 06:01:27;;;;;;;33.57;15.67;;;;;;;-5.60;52.86;100051.81;7144524;27;20664;-78
2022/12/18 06:04:48;;;;;;;35.57;17.60;;;;;;;-5.22;51.93;100063.06;7143695;27;20198;-78
2022/12/18 06:08:12;;;;;;;36.37;16.57;;;;;;;-4.95;51.62;100045.88;7144864;27;20251;-78
2022/12/18 06:11:33;;;;;;;33.33;16.83;;;;;;;-5.35;51.14;100052.31;7144242;27;20681;-79
2022/12/18 06:14:55;;;;;;;33.27;16.67;;;;;;;-5.34;51.81;100047.91;7143833;27;20246;-79
2022/12/18 06:18:16;;;;;;;29.23;17.10;;;;;;;-5.90;53.89;100063.81;7144112;27;20248;-78
2022/12/18 06:21:38;;;;;;;32.20;18.80;;;;;;;-5.87;52.87;100054.94;7144187;27;20289;-78
2022/12/18 06:25:00;;;;;;;36.77;18.70;;;;;;;-6.16;54.15;100060.72;7117937;27;20208;-78
2022/12/18 06:28:22;;;;;;;34.70;17.13;;;;;;;-5.70;54.02;100041.81;7085566;27;20568;-78
2022/12/18 06:31:43;;;;;;;33.27;17.33;;;;;;;-5.40;52.16;100022.78;7085529;27;20351;-78
2022/12/18 06:35:06;;;;;;;31.97;17.00;;;;;;;-5.08;51.92;100061.44;7084381;27;20692;-78
2022/12/18 06:38:28;;;;;;;33.93;17.50;;;;;;;-5.09;51.19;100058.88;7085144;27;20625;-78
2022/12/18 06:41:52;;;;;;;29.07;17.77;;;;;;;-5.10;51.31;100051.91;7084409;27;20349;-78
2022/12/18 06:45:16;;;;;;;38.13;17.30;;;;;;;-5.20;51.19;100066.47;7085186;27;20299;-77
2022/12/18 06:48:37;;;;;;;37.00;17.73;;;;;;;-5.32;52.31;100070.53;7092157;27;20266;-78
2022/12/18 06:51:59;;;;;;;37.87;19.30;;;;;;;-5.49;52.37;100069.69;7087159;27;20303;-77
2022/12/18 06:55:20;;;;;;;41.00;19.90;;;;;;;-5.64;51.53;100025.75;7086598;27;20850;-79
2022/12/18 06:58:43;;;;;;;35.43;18.23;;;;;;;-5.11;51.98;100087.03;7087895;27;20357;-78
2022/12/18 07:02:05;;;;;;;38.77;18.83;;;;;;;-4.99;51.54;100081.16;7088774;27;20336;-79
2022/12/18 07:05:26;;;;;;;34.27;19.27;;;;;;;-4.91;52.77;100087.72;7091480;27;20191;-80
2022/12/18 07:08:49;;;;;;;35.53;17.30;;;;;;;-4.64;51.25;100085.44;7118580;27;20251;-82
2022/12/18 07:12:10;;;;;;;32.50;16.87;;;;;;;-4.90;50.70;100081.53;7119169;27;20203;-82
2022/12/18 07:15:33;;;;;;;31.23;16.90;;;;;;;-4.87;50.39;100091.91;7119777;27;20349;-78
2022/12/18 07:18:55;;;;;;;34.57;15.47;;;;;;;-5.40;51.07;100066.59;7115747;27;20978;-78
2022/12/18 07:22:17;;;;;;;25.93;17.03;;;;;;;-5.01;49.88;100094.38;7115155;27;20237;-78
2022/12/18 07:25:39;;;;;;;28.10;16.47;;;;;;;-5.17;50.27;100100.47;7116558;27;20288;-79
2022/12/18 07:29:00;;;;;;;34.73;16.70;;;;;;;-4.93;50.63;100112.38;7111719;27;20227;-79
2022/12/18 07:32:23;;;;;;;36.43;19.00;;;;;;;-5.11;49.98;100101.03;7115426;27;20730;-80
2022/12/18 07:35:45;;;;;;;35.20;17.70;;;;;;;-4.71;49.38;100115.63;7114804;27;20190;-80
2022/12/18 07:39:06;;;;;;;35.37;18.43;;;;;;;-4.80;49.77;100102.94;7115275;27;20365;-79
2022/12/18 07:42:35;;;;;;;34.47;18.47;;;;;;;-5.38;50.06;100083.13;7117548;27;20676;-79
2022/12/18 07:45:56;;;;;;;35.67;16.67;;;;;;;-5.17;50.67;100087.34;7114477;27;20663;-77
2022/12/18 07:49:19;;;;;;;30.07;18.60;;;;;;;-4.82;50.44;100112.69;7126450;27;20272;-78
2022/12/18 07:52:41;;;;;;;30.17;16.80;;;;;;;-4.75;50.21;100109.69;7144119;27;20228;-78
2022/12/18 07:56:05;;;;;;;33.27;17.40;;;;;;;-5.35;51.31;100111.91;7142347;27;20696;-77
2022/12/18 07:59:27;;;;;;;39.13;19.17;;;;;;;-4.94;51.09;100076.50;7138060;27;20692;-77
2022/12/18 08:02:49;;;;;;;35.20;17.67;;;;;;;-5.14;51.45;100114.31;7114554;27;20284;-77
2022/12/18 08:06:11;;;;;;;38.20;20.07;;;;;;;-4.87;51.78;100115.56;7113819;27;20297;-77
2022/12/18 08:09:33;;;;;;;34.10;17.43;;;;;;;-4.38;50.24;100120.00;7119274;27;20258;-78
2022/12/18 08:12:54;;;;;;;36.27;18.20;;;;;;;-4.18;50.12;100118.94;7120365;27;20292;-78
2022/12/18 08:16:16;;;;;;;39.40;21.03;;;;;;;-4.69;51.57;100116.41;7119464;27;20652;-78
2022/12/18 08:19:38;;;;;;;36.83;19.63;;;;;;;-4.14;49.74;100102.91;7119947;27;20306;-78
2022/12/18 08:23:01;;;;;;;37.97;19.93;;;;;;;-3.79;49.22;100087.81;7120463;27;20254;-78
2022/12/18 08:26:23;;;;;;;35.40;18.87;;;;;;;-3.66;48.92;100102.00;7119412;27;20354;-78
2022/12/18 08:29:45;;;;;;;33.10;18.57;;;;;;;-3.67;48.66;100114.31;7119277;27;20316;-79
2022/12/18 08:33:06;;;;;;;45.10;21.97;;;;;;;-3.68;50.51;100104.72;7107937;27;20702;-80
2022/12/18 08:36:28;;;;;;;39.70;20.33;;;;;;;-3.56;49.65;100061.88;7090485;27;20210;-77
2022/12/18 08:39:50;;;;;;;43.67;21.40;;;;;;;-2.69;49.37;100114.75;7118850;27;20226;-77
2022/12/18 08:46:48;;;;;;;44.67;21.57;;;;;;;-0.60;45.06;100091.47;7065897;27;20205;-79
2022/12/18 08:50:14;;;;;;;43.67;22.20;;;;;;;-0.62;45.05;100085.44;7108007;27;20305;-82
2022/12/18 08:53:36;;;;;;;42.70;21.67;;;;;;;-1.01;46.18;100098.69;7129846;27;20207;-84
2022/12/18 08:57:01;;;;;;;41.33;22.87;;;;;;;-1.35;45.96;100041.03;7131775;27;20210;-84
2022/12/18 09:00:23;;;;;;;47.37;23.83;;;;;;;-1.00;46.65;100107.47;7131610;27;20234;-84
2022/12/18 09:03:47;;;;;;;45.37;24.63;;;;;;;-1.07;47.32;100091.16;7131168;27;20205;-83
2022/12/18 09:07:09;;;;;;;43.30;24.03;;;;;;;-1.30;47.13;100091.81;7127660;27;20677;-82
2022/12/18 09:10:30;;;;;;;42.17;21.67;;;;;;;-0.91;48.46;100086.53;7102800;27;20240;-83
2022/12/18 09:13:54;;;;;;;45.90;24.00;;;;;;;-1.11;48.69;100063.22;7094580;27;20240;-81
2022/12/18 09:17:16;;;;;;;36.73;20.43;;;;;;;-0.54;47.93;100058.44;7093156;27;20202;-81
2022/12/18 09:20:38;;;;;;;39.17;20.40;;;;;;;-0.36;46.92;100020.06;7091206;27;20354;-81
2022/12/18 09:24:00;;;;;;;45.30;24.60;;;;;;;-0.80;48.50;100078.72;7090849;27;20208;-81
2022/12/18 09:27:22;;;;;;;43.47;24.90;;;;;;;-0.13;47.91;100068.69;7109049;27;20228;-81
2022/12/18 09:30:47;;;;;;;53.07;26.63;;;;;;;-0.52;49.56;100051.22;7118757;27;20369;-81
2022/12/18 09:34:08;;;;;;;54.80;26.63;;;;;;;-0.11;51.58;100071.25;7119689;27;20303;-81
2022/12/18 09:37:51;;;;;;;48.57;25.10;;;;;;;0.75;48.07;100053.38;7119166;27;20342;-81
2022/12/18 09:41:33;;;;;;;48.47;24.53;;;;;;;1.21;48.33;100061.38;7094480;27;20219;-81
2022/12/18 09:44:55;;;;;;;44.10;23.50;;;;;;;2.06;47.00;100049.31;7100520;27;20278;-81
2022/12/18 09:48:21;;;;;;;43.30;22.00;;;;;;;2.40;46.33;100055.44;7120912;27;20203;-81
2022/12/18 09:51:45;;;;;;;39.57;22.07;;;;;;;2.48;45.69;100016.56;7122973;27;20665;-81
2022/12/18 09:55:12;;;;;;;41.93;24.73;;;;;;;1.99;45.84;100031.28;7124112;27;20248;-81
2022/12/18 09:58:38;;;;;;;44.53;23.67;;;;;;;1.95;48.24;100045.81;7124574;27;20283;-83
2022/12/18 10:02:23;;;;;;;48.47;22.80;;;;;;;2.02;47.46;100036.38;7122895;27;20394;-80
2022/12/18 10:05:55;;;;;;;39.27;22.80;;;;;;;2.19;47.52;100033.22;7112074;27;20199;-81
2022/12/18 10:09:23;;;;;;;42.83;22.77;;;;;;;2.72;48.25;99963.97;7114719;27;20225;-82
2022/12/18 10:12:54;;;;;;;40.57;20.63;;;;;;;3.82;45.69;100029.06;7120207;27;20285;-82
2022/12/18 10:16:20;;;;;;;34.97;19.33;;;;;;;3.92;45.41;100009.50;7117838;27;20285;-83
2022/12/18 10:19:48;;;;;;;36.80;19.97;;;;;;;3.98;45.44;100008.09;7123882;27;20243;-83
2022/12/18 10:23:19;;;;;;;38.70;20.17;;;;;;;4.62;45.63;100026.28;7125396;27;20206;-82
2022/12/18 10:26:42;;;;;;;37.00;19.27;;;;;;;5.05;44.80;100026.72;7098025;27;20195;-84
2022/12/18 10:30:28;;;;;;;37.60;19.87;;;;;;;5.64;44.43;100019.34;7095843;27;20231;-83
2022/12/18 10:33:50;;;;;;;38.10;20.40;;;;;;;5.90;42.02;100015.06;7097654;27;20203;-81
2022/12/18 10:37:20;;;;;;;37.03;19.27;;;;;;;4.73;43.63;100014.63;7094517;27;20199;-83
2022/12/18 10:40:51;;;;;;;38.47;19.97;;;;;;;3.94;44.71;100014.66;7115231;27;20266;-82
2022/12/18 10:44:17;;;;;;;37.00;19.50;;;;;;;3.55;45.09;100026.13;7116001;27;20229;-83
2022/12/18 10:47:46;;;;;;;35.73;21.00;;;;;;;3.16;46.95;100026.84;7095877;27;20206;-86
2022/12/18 10:51:08;;;;;;;33.07;19.07;;;;;;;5.02;45.04;100024.31;7096152;27;20761;-85
2022/12/18 10:54:35;;;;;;;35.70;20.37;;;;;;;4.05;45.48;100035.94;7107707;27;20198;-85
2022/12/18 10:58:14;;;;;;;35.73;20.43;;;;;;;4.62;43.90;100042.31;7128900;27;20199;-84
2022/12/18 11:01:48;;;;;;;38.00;20.30;;;;;;;3.78;47.68;100039.16;7126047;27;20199;-84
2022/12/18 11:05:26;;;;;;;36.83;21.40;;;;;;;3.82;46.34;100039.75;7126415;27;20218;-83
2022/12/18 11:08:58;;;;;;;37.33;20.77;;;;;;;3.82;48.47;100015.75;7124511;27;20236;-84
2022/12/18 11:12:21;;;;;;;39.70;20.33;;;;;;;5.09;45.87;100030.81;7126524;27;20187;-84
2022/12/18 11:15:44;;;;;;;38.50;20.03;;;;;;;4.54;45.34;100028.78;7120104;27;20256;-85
2022/12/18 11:19:21;;;;;;;40.63;20.83;;;;;;;4.23;47.43;100027.16;7123013;27;20313;-83
2022/12/18 11:22:43;;;;;;;37.33;20.03;;;;;;;5.37;45.46;100019.25;7127397;27;20209;-82
2022/12/18 11:26:06;;;;;;;31.47;18.67;;;;;;;4.70;45.35;99953.44;7105550;27;20275;-85
2022/12/18 11:29:34;;;;;;;33.93;19.70;;;;;;;4.06;46.24;99970.91;7119740;27;20607;-84
2022/12/18 11:33:00;;;;;;;32.87;18.27;;;;;;;5.22;44.71;99944.97;7128243;27;20772;-84
2022/12/18 11:36:23;;;;;;;36.10;18.63;;;;;;;6.21;42.72;99986.19;7127588;27;20206;-84
2022/12/18 11:39:58;;;;;;;33.53;19.43;;;;;;;6.12;41.86;99896.88;7127637;27;20649;-83
2022/12/18 11:43:56;;;;;;;33.30;17.53;;;;;;;5.55;43.57;99989.94;7102201;27;20281;-84
2022/12/18 11:55:42;;;;;;;35.60;20.03;;;;;;;5.51;44.09;99967.13;7031571;28;20201;-84
2022/12/18 12:03:39;;;;;;;32.47;18.97;;;;;;;4.30;47.71;99961.56;7073758;27;20210;-83
2022/12/18 12:07:16;;;;;;;31.90;18.73;;;;;;;3.98;48.43;99952.94;7130435;27;20203;-87
2022/12/18 12:10:46;;;;;;;70.30;37.03;;;;;;;3.78;47.02;99891.66;7126639;27;20241;-83
2022/12/18 12:14:43;;;;;;;33.30;18.83;;;;;;;3.99;48.05;99953.75;7123881;27;20258;-83
2022/12/18 12:18:40;;;;;;;;;;;;;;;;;;;;;
2022/12/18 12:22:30;;;;;;;38.27;19.50;;;;;;;2.78;51.34;99955.47;7119136;27;20223;-83
2022/12/18 12:26:21;;;;;;;32.40;19.70;;;;;;;2.83;51.02;99933.81;7111260;27;20289;-82
2022/12/18 12:30:05;;;;;;;35.13;20.57;;;;;;;2.61;52.12;99944.56;7130948;27;20222;-86
2022/12/18 12:34:10;;;;;;;33.57;18.80;;;;;;;2.63;51.91;99938.13;7131623;27;20207;-83
2022/12/18 12:38:08;;;;;;;31.10;18.20;;;;;;;2.99;51.80;99939.50;7130736;27;20191;-83
2022/12/18 12:45:19;;;;;;;34.73;19.33;;;;;;;3.16;51.21;99949.56;7115859;27;20251;-84
2022/12/18 12:48:47;;;;;;;30.87;18.20;;;;;;;2.88;51.95;99916.44;7102180;27;20230;-83
2022/12/18 12:52:13;;;;;;;37.37;19.20;;;;;;;3.32;50.86;99939.31;7101882;27;20222;-83
2022/12/18 12:55:35;;;;;;;35.13;19.40;;;;;;;3.26;51.21;99950.50;7100541;27;20491;-83
2022/12/18 12:59:05;;;;;;;33.67;20.00;;;;;;;3.00;51.55;99952.69;7101330;27;20234;-82
2022/12/18 13:02:43;;;;;;;34.23;19.40;;;;;;;3.26;51.06;99950.50;7108494;27;20210;-83
2022/12/18 13:06:10;;;;;;;35.93;18.93;;;;;;;3.26;51.68;99948.66;7128367;27;20209;-83
2022/12/18 13:09:33;;;;;;;38.37;19.53;;;;;;;2.84;51.53;99964.78;7125741;27;20287;-83
2022/12/18 13:12:59;;;;;;;35.40;20.13;;;;;;;3.45;50.45;99946.13;7129272;27;20287;-83
2022/12/18 13:16:24;;;;;;;36.93;18.80;;;;;;;3.52;49.75;99943.75;7123459;27;20213;-84
2022/12/18 13:19:46;;;;;;;37.80;19.80;;;;;;;2.91;52.11;99966.81;7129424;27;20612;-85
2022/12/18 13:23:33;;;;;;;37.33;19.80;;;;;;;2.99;51.56;99963.47;7128897;27;20207;-85
2022/12/18 13:26:56;;;;;;;36.20;19.13;;;;;;;3.16;50.95;99966.41;7120566;27;20207;-85
2022/12/18 13:30:49;;;;;;;36.03;19.37;;;;;;;2.93;51.36;99962.19;7129372;27;20260;-82
2022/12/18 13:34:19;;;;;;;37.20;22.73;;;;;;;2.77;51.98;99964.44;7129451;27;20653;-83
2022/12/18 13:37:42;;;;;;;39.60;20.17;;;;;;;2.81;51.79;99957.03;7123509;27;20199;-79
2022/12/18 13:41:23;;;;;;;38.60;19.60;;;;;;;3.13;51.19;99944.53;7119488;27;20302;-81
2022/12/18 13:44:48;;;;;;;38.43;21.03;;;;;;;3.25;51.10;99948.81;7103044;27;20275;-84
2022/12/18 13:48:18;;;;;;;35.23;19.07;;;;;;;3.25;51.36;99940.81;7121784;27;20351;-80
2022/12/18 13:51:43;;;;;;;34.53;20.73;;;;;;;3.63;50.71;99943.66;7123024;27;20399;-82
2022/12/18 13:55:08;;;;;;;37.27;20.90;;;;;;;3.59;49.81;99923.59;7113248;27;20215;-82
2022/12/18 13:58:30;;;;;;;36.63;20.20;;;;;;;3.71;49.84;99936.66;7099218;27;20230;-85
2022/12/18 14:02:03;;;;;;;39.83;20.67;;;;;;;3.02;51.14;99945.41;7099233;27;20223;-83
2022/12/18 14:05:40;;;;;;;34.67;19.97;;;;;;;3.18;50.95;99948.47;7098363;27;20187;-84
2022/12/18 14:09:04;;;;;;;38.43;22.27;;;;;;;3.11;50.63;99923.34;7096822;27;20235;-85
2022/12/18 14:16:22;;;;;;;31.60;18.97;;;;;;;3.74;49.48;99940.91;7124958;27;20215;-83
2022/12/18 14:19:46;;;;;;;38.33;20.00;;;;;;;3.45;50.51;99937.25;7129018;27;20221;-88
2022/12/18 14:23:26;;;;;;;37.57;19.87;;;;;;;3.24;49.39;99888.50;7125996;27;20202;-82
2022/12/18 14:26:51;;;;;;;36.97;19.83;;;;;;;3.23;50.32;99922.28;7124136;27;20281;-84
2022/12/18 14:30:28;;;;;;;37.33;22.90;;;;;;;2.95;51.92;99940.75;7126365;27;20246;-84
2022/12/18 14:33:51;;;;;;;34.63;19.57;;;;;;;3.99;49.89;99945.75;7125922;27;20217;-85
2022/12/18 14:37:14;;;;;;;37.87;19.83;;;;;;;3.81;49.14;99929.56;7124588;27;20199;-83
2022/12/18 14:41:03;;;;;;;38.00;20.17;;;;;;;2.78;50.96;99930.69;7126412;27;20222;-83
2022/12/18 14:44:29;;;;;;;36.13;19.90;;;;;;;3.38;50.07;99942.28;7122693;27;20209;-82
2022/12/18 14:47:51;;;;;;;43.00;22.37;;;;;;;2.09;52.47;99893.94;7124105;27;20274;-84
2022/12/18 14:51:20;;;;;;;35.67;19.23;;;;;;;2.67;51.95;99965.34;7127528;27;20237;-83
2022/12/18 14:54:47;;;;;;;35.80;20.27;;;;;;;2.63;52.99;99966.56;7127972;27;20207;-84
2022/12/18 14:58:12;;;;;;;39.53;21.27;;;;;;;2.26;53.42;99950.09;7120824;27;20191;-83
2022/12/18 15:01:37;;;;;;;34.90;19.27;;;;;;;2.45;52.40;99931.69;7126531;27;20190;-83
2022/12/18 15:05:04;;;;;;;38.73;21.00;;;;;;;2.68;52.22;99962.56;7124390;27;20190;-83
2022/12/18 15:08:31;;;;;;;35.17;19.93;;;;;;;2.32;53.98;99975.38;7124407;27;20555;-84
2022/12/18 15:11:57;;;;;;;38.60;20.70;;;;;;;2.80;51.81;99964.19;7123401;27;20250;-83
2022/12/18 15:15:48;;;;;;;35.20;20.17;;;;;;;2.74;51.92;99954.06;7123251;27;20201;-85
2022/12/18 15:19:11;;;;;;;36.90;20.90;;;;;;;3.19;50.76;99962.66;7119070;27;20246;-84
2022/12/18 15:22:35;;;;;;;36.60;20.40;;;;;;;2.95;49.99;99920.28;7129494;27;20233;-84
2022/12/18 15:26:01;;;;;;;34.80;20.07;;;;;;;2.95;50.19;99976.22;7125629;27;20222;-81
2022/12/18 15:29:30;;;;;;;41.33;22.37;;;;;;;2.74;51.29;99969.19;7106710;27;20234;-82
2022/12/18 15:32:53;;;;;;;34.13;18.37;;;;;;;3.18;50.50;99942.31;7124078;27;20226;-84
2022/12/18 15:36:17;;;;;;;82.33;41.67;;;;;;;3.06;51.76;99949.50;7123376;27;20203;-82
2022/12/18 15:39:39;;;;;;;35.60;19.53;;;;;;;3.07;51.16;99927.22;7122155;27;20223;-79
2022/12/18 15:46:39;;;;;;;36.13;19.20;;;;;;;2.49;51.34;99908.31;7091161;27;20187;-79
2022/12/18 15:50:02;;;;;;;33.97;18.73;;;;;;;2.97;50.39;99955.63;7084786;27;20271;-78
2022/12/18 15:53:26;;;;;;;32.93;18.37;;;;;;;2.88;50.82;99950.22;7085172;27;20686;-79
2022/12/18 16:00:31;;;;;;;33.90;19.17;;;;;;;2.57;50.73;99941.31;7120051;27;20275;-83
2022/12/18 16:03:53;;;;;;;32.73;18.03;;;;;;;2.58;50.96;99968.75;7126885;27;20202;-82
2022/12/18 16:07:14;;;;;;;37.03;20.47;;;;;;;2.04;51.52;99959.97;7123707;27;20207;-81
2022/12/18 16:10:38;;;;;;;37.03;20.00;;;;;;;2.19;52.05;99969.38;7119200;27;20222;-81
2022/12/18 16:14:02;;;;;;;35.13;18.03;;;;;;;2.16;51.75;99973.13;7100357;27;20220;-83
2022/12/18 16:17:24;;;;;;;36.87;20.67;;;;;;;2.11;51.69;99969.13;7120157;27;20203;-81
2022/12/18 16:20:46;;;;;;;35.07;19.30;;;;;;;2.03;51.58;99961.78;7122200;27;20269;-81
2022/12/18 16:24:14;;;;;;;36.07;19.00;;;;;;;1.71;52.32;99958.19;7121740;27;20872;-82
2022/12/18 16:27:37;;;;;;;34.83;19.83;;;;;;;1.35;53.22;99960.22;7115856;27;20242;-84